Pagrindinis puslapis
METAR-TAF:

METAR-TAF

Oro uostai :

Džibučio

Džibutis, Džibutis

platuma: 11-33N, ilguma: 043-10E, Aukštis: 49 m

Dabartinis oras

Ataskaita buvo paskelbta 6 valandos ir 23 minutes, ne 17:00 UTC
Vėjas 4 kt iš Rytų
Temperatūra 33°C
Drėgmė 63%
Slėgis 1005 hPa
Matomumas 10 km arba daugiau
nėra debesų žemiau 1500 m ir nėra kamuolinių lietaus debesų

METAR: HDAM 201700Z 08004KT CAVOK 33/25 Q1005

Laikas: 02:23 (23:23 UTC)

Prognozė

Ataskaita buvo paskelbta 6 valandos ir 23 minutes, ne 17:00 UTC
Prognozė galioja nuo 20 metu 18 UTC su 21 metu 18 UTC
Vėjas 5 kt nuo kintamojo kryptimis
Matomumas 10 km arba daugiau
nėra debesų žemiau 1500 m ir nėra kamuolinių lietaus debesų
Tapsmas
nuo 21 metu 00 UTC su 21 metu 06 UTC
Vėjas kt iš Šiaurės
Išsisklaidę debesys ne aukštis 13300 ft
Tapsmas
nuo 21 metu 06 UTC su 21 metu 12 UTC
Išsisklaidę debesys ne aukštis 2300 ft

TAF: HDAM 201700Z 2018/2118 VRB05KT CAVOK BECMG 2100/2106 00000KT SCT133 BECMG 2106/2112 0610G15KT SCT023

Orai ataskaitas ir orų prognozės (METAR, TAF).

turimą stotys yra geltonos ir raudonos taškus žemėlapyje.

Perkelti pele per norėdami pamatyti stoties vardą.

Tada spustelėkite, norėdami matyti oro stebėjimo ir prognozės.

Norėdami pakeisti žemėlapį: spustelėkite ant žalios mygtukų su juodo kryžiaus žemyn,; žalią mygtuką su brūkšneliu, jei norite nutolinti; arba žalių rodyklių gretimoms žemėlapius.


METAR-TAF: